createdAt,value
2018-07-11T00:00:35.659Z,15.83
2018-07-11T00:01:35.647Z,15.87
2018-07-11T00:02:35.629Z,15.87
2018-07-11T00:03:35.621Z,15.67
2018-07-11T00:04:35.620Z,15.71
2018-07-11T00:05:35.588Z,15.75
2018-07-11T00:06:35.573Z,15.71
2018-07-11T00:07:35.560Z,15.59
2018-07-11T00:08:35.543Z,15.59
2018-07-11T00:09:35.543Z,15.62
2018-07-11T00:10:35.521Z,15.62
2018-07-11T00:11:35.503Z,15.50
2018-07-11T00:12:35.489Z,15.41
2018-07-11T00:13:35.472Z,15.36
2018-07-11T00:14:35.471Z,15.28
2018-07-11T00:15:35.442Z,15.20
2018-07-11T00:16:35.431Z,15.27
2018-07-11T00:17:35.415Z,15.25
2018-07-11T00:18:35.397Z,15.13
2018-07-11T00:19:35.428Z,15.19
2018-07-11T00:20:35.376Z,15.17
2018-07-11T00:21:35.356Z,15.14
2018-07-11T00:22:35.343Z,15.14
2018-07-11T00:23:35.333Z,15.10
2018-07-11T00:24:35.316Z,15.11
2018-07-11T00:25:35.323Z,15.11
2018-07-11T00:26:35.287Z,15.07
2018-07-11T00:27:35.272Z,14.98
2018-07-11T00:28:35.255Z,14.94
2018-07-11T00:29:35.242Z,14.98
2018-07-11T00:30:35.252Z,14.96
2018-07-11T00:31:35.230Z,14.95
2018-07-11T00:32:35.204Z,14.91
2018-07-11T00:33:35.187Z,14.86
2018-07-11T00:34:35.171Z,14.83
2018-07-11T00:35:35.195Z,14.80
2018-07-11T00:36:35.145Z,14.89
2018-07-11T00:37:35.128Z,14.80
2018-07-11T00:38:35.114Z,14.86
2018-07-11T00:39:35.116Z,14.72
2018-07-11T00:40:35.089Z,14.77
2018-07-11T00:41:35.085Z,14.77
2018-07-11T00:42:35.056Z,14.61
2018-07-11T00:43:35.041Z,14.62
2018-07-11T00:44:35.024Z,14.61
2018-07-11T00:45:35.042Z,14.65
2018-07-11T00:46:34.999Z,14.55
2018-07-11T00:47:34.981Z,14.54
2018-07-11T00:48:34.967Z,14.52
2018-07-11T00:49:34.949Z,14.54
2018-07-11T00:50:34.938Z,14.54
2018-07-11T00:51:34.935Z,14.50
2018-07-11T00:52:34.908Z,14.45
2018-07-11T00:53:34.890Z,14.43
2018-07-11T00:54:34.881Z,14.36
2018-07-11T00:55:34.864Z,14.37
2018-07-11T00:56:34.864Z,14.43
2018-07-11T00:57:34.851Z,14.42
2018-07-11T00:58:34.820Z,14.33
2018-07-11T00:59:34.804Z,14.35
2018-07-11T01:00:34.788Z,14.33
2018-07-11T01:01:34.773Z,14.33
2018-07-11T01:02:34.772Z,14.35
2018-07-11T01:03:34.747Z,14.25
2018-07-11T01:04:34.731Z,14.22
2018-07-11T01:05:34.722Z,14.27
2018-07-11T01:06:34.701Z,14.15
2018-07-11T01:07:34.700Z,14.28
2018-07-11T01:08:34.672Z,14.20
2018-07-11T01:09:34.662Z,14.24
2018-07-11T01:10:34.640Z,14.24
2018-07-11T01:11:34.627Z,14.24
2018-07-11T01:12:34.640Z,14.22
2018-07-11T01:13:34.599Z,14.27
2018-07-11T01:14:34.582Z,14.09
2018-07-11T01:15:34.564Z,14.22
2018-07-11T01:16:34.551Z,14.20
2018-07-11T01:17:34.536Z,14.18
2018-07-11T01:18:34.536Z,14.22
2018-07-11T01:19:34.509Z,14.12
2018-07-11T01:20:34.497Z,14.15
2018-07-11T01:21:34.478Z,14.14
2018-07-11T01:22:34.478Z,14.07
2018-07-11T01:23:34.458Z,14.10
2018-07-11T01:24:34.433Z,14.02
2018-07-11T01:25:34.416Z,13.99
2018-07-11T01:26:34.397Z,13.97
2018-07-11T01:27:34.382Z,13.91
2018-07-11T01:28:34.385Z,13.95
2018-07-11T01:29:34.359Z,13.95
2018-07-11T01:30:34.340Z,13.91
2018-07-11T01:31:34.330Z,13.89
2018-07-11T01:32:34.311Z,13.92
2018-07-11T01:33:34.312Z,13.89
2018-07-11T01:34:34.286Z,13.89
2018-07-11T01:35:34.266Z,13.95
2018-07-11T01:36:34.252Z,13.96
2018-07-11T01:37:34.236Z,13.87
2018-07-11T01:38:34.232Z,13.79
2018-07-11T01:39:34.209Z,13.85
2018-07-11T01:40:34.207Z,13.87
2018-07-11T01:41:34.174Z,13.92
2018-07-11T01:42:34.204Z,13.78
2018-07-11T01:43:34.141Z,13.79
2018-07-11T01:44:34.142Z,13.82
2018-07-11T01:45:34.119Z,13.85
2018-07-11T01:46:34.100Z,13.71
2018-07-11T01:47:34.084Z,13.77
2018-07-11T01:48:34.067Z,13.81
2018-07-11T01:49:34.078Z,13.70
2018-07-11T01:50:34.038Z,13.70
2018-07-11T01:51:34.024Z,13.77
2018-07-11T01:52:34.009Z,13.70
2018-07-11T01:53:33.988Z,13.66
2018-07-11T01:54:33.981Z,13.62
2018-07-11T01:55:33.977Z,13.75
2018-07-11T01:56:33.945Z,13.73
2018-07-11T01:57:33.932Z,13.77
2018-07-11T01:58:33.918Z,13.73
2018-07-11T01:59:33.903Z,13.77
2018-07-11T02:00:33.906Z,13.75
2018-07-11T02:01:33.869Z,13.64
2018-07-11T02:02:33.856Z,13.71
2018-07-11T02:03:33.840Z,13.71
2018-07-11T02:04:33.828Z,13.66
2018-07-11T02:05:33.812Z,13.81
2018-07-11T02:06:33.823Z,13.73
2018-07-11T02:07:33.779Z,13.75
2018-07-11T02:08:33.767Z,13.62
2018-07-11T02:09:33.749Z,13.70
2018-07-11T02:10:33.740Z,13.69
2018-07-11T02:11:33.719Z,13.70
2018-07-11T02:12:33.722Z,13.77
2018-07-11T02:13:33.691Z,13.67
2018-07-11T02:14:33.675Z,13.73
2018-07-11T02:15:33.660Z,13.75
2018-07-11T02:16:33.639Z,13.77
2018-07-11T02:17:33.654Z,13.75
2018-07-11T02:18:33.618Z,13.77
2018-07-11T02:19:33.597Z,13.78
2018-07-11T02:20:33.584Z,13.82
2018-07-11T02:21:33.568Z,13.81
2018-07-11T02:22:33.552Z,13.84
2018-07-11T02:23:33.552Z,13.70
2018-07-11T02:24:33.521Z,13.81
2018-07-11T02:25:33.512Z,13.70
2018-07-11T02:26:33.491Z,13.78
2018-07-11T02:27:33.473Z,13.75
2018-07-11T02:28:33.491Z,13.81
2018-07-11T02:29:33.447Z,13.71
2018-07-11T02:30:33.431Z,13.81
2018-07-11T02:31:33.415Z,13.82
2018-07-11T02:32:33.397Z,13.78
2018-07-11T02:33:33.385Z,13.75
2018-07-11T02:34:33.385Z,13.71
2018-07-11T02:35:33.367Z,13.70
2018-07-11T02:36:33.339Z,13.71
2018-07-11T02:37:33.328Z,13.60
2018-07-11T02:38:33.304Z,13.64
2018-07-11T02:39:33.292Z,13.62
2018-07-11T02:40:33.292Z,13.69
2018-07-11T02:41:33.261Z,13.63
2018-07-11T02:42:33.250Z,13.45
2018-07-11T02:43:33.231Z,13.49
2018-07-11T02:44:33.215Z,13.52
2018-07-11T02:45:33.216Z,13.48
2018-07-11T02:46:33.182Z,13.42
2018-07-11T02:47:33.169Z,13.29
2018-07-11T02:48:33.152Z,13.38
2018-07-11T02:49:33.140Z,13.29
2018-07-11T02:50:33.137Z,13.30
2018-07-11T02:51:33.108Z,13.33
2018-07-11T02:52:33.093Z,13.14
2018-07-11T02:53:33.103Z,13.17
2018-07-11T02:54:33.060Z,13.14
2018-07-11T02:55:33.060Z,13.30
2018-07-11T02:56:33.031Z,13.19
2018-07-11T02:57:33.027Z,13.10
2018-07-11T02:58:33.016Z,13.15
2018-07-11T02:59:32.984Z,13.10
2018-07-11T03:00:32.967Z,13.22
2018-07-11T03:01:32.967Z,13.10
2018-07-11T03:02:32.935Z,13.07
2018-07-11T03:03:32.922Z,13.05
2018-07-11T03:04:32.909Z,13.12
2018-07-11T03:05:32.891Z,13.11
2018-07-11T03:06:32.889Z,13.08
2018-07-11T03:07:32.864Z,13.15
2018-07-11T03:08:32.840Z,13.08
2018-07-11T03:09:32.827Z,13.08
2018-07-11T03:10:32.816Z,13.11
2018-07-11T03:11:32.800Z,13.10
2018-07-11T03:12:32.808Z,13.08
2018-07-11T03:13:32.763Z,13.23
2018-07-11T03:14:32.748Z,13.08
2018-07-11T03:15:32.734Z,13.11
2018-07-11T03:16:32.721Z,13.11
2018-07-11T03:17:32.707Z,13.11
2018-07-11T03:18:32.702Z,13.10
2018-07-11T03:19:32.671Z,13.11
2018-07-11T03:20:32.660Z,13.11
2018-07-11T03:21:32.637Z,13.14
2018-07-11T03:22:32.644Z,13.12
2018-07-11T03:23:32.608Z,13.11
2018-07-11T03:24:32.593Z,13.12
2018-07-11T03:25:32.582Z,13.11
2018-07-11T03:26:32.565Z,13.08
2018-07-11T03:27:32.561Z,13.11
2018-07-11T03:28:32.552Z,13.14
2018-07-11T03:29:32.519Z,13.14
2018-07-11T03:30:32.501Z,13.10
2018-07-11T03:31:32.485Z,13.11
2018-07-11T03:32:32.524Z,13.11
2018-07-11T03:33:32.467Z,13.08
2018-07-11T03:34:32.440Z,13.08
2018-07-11T03:35:32.423Z,13.07
2018-07-11T03:36:32.411Z,13.04
2018-07-11T03:37:32.394Z,12.96
2018-07-11T03:38:32.376Z,12.97
2018-07-11T03:39:33.132Z,12.95
2018-07-11T03:40:32.348Z,12.89
2018-07-11T03:41:32.347Z,12.93
2018-07-11T03:42:32.316Z,12.86
2018-07-11T03:43:32.299Z,12.85
2018-07-11T03:44:32.310Z,12.82
2018-07-11T03:45:32.271Z,12.83
2018-07-11T03:46:32.253Z,12.77
2018-07-11T03:47:32.233Z,12.77
2018-07-11T03:48:32.223Z,12.77
2018-07-11T03:49:32.207Z,12.75
2018-07-11T03:50:32.199Z,12.74
2018-07-11T03:51:32.173Z,12.71
2018-07-11T03:52:32.156Z,12.83
2018-07-11T03:53:32.144Z,12.77
2018-07-11T03:54:32.127Z,12.72
2018-07-11T03:55:32.126Z,12.83
2018-07-11T03:56:32.096Z,12.77
2018-07-11T03:57:32.083Z,12.79
2018-07-11T03:58:32.075Z,12.82
2018-07-11T03:59:32.044Z,12.74
2018-07-11T04:00:32.044Z,12.86
2018-07-11T04:01:32.017Z,12.87
2018-07-11T04:02:32.004Z,12.83
2018-07-11T04:03:31.985Z,12.86
2018-07-11T04:04:31.988Z,12.93
2018-07-11T04:05:31.968Z,12.89
2018-07-11T04:06:31.938Z,12.82
2018-07-11T04:07:31.928Z,12.86
2018-07-11T04:08:31.907Z,12.83
2018-07-11T04:09:31.891Z,12.83
2018-07-11T04:10:31.890Z,12.86
2018-07-11T04:11:31.862Z,12.79
2018-07-11T04:12:31.851Z,12.78
2018-07-11T04:13:31.827Z,12.78
2018-07-11T04:14:31.812Z,12.83
2018-07-11T04:15:31.795Z,12.79
2018-07-11T04:16:31.799Z,12.82
2018-07-11T04:17:31.766Z,12.74
2018-07-11T04:18:31.748Z,12.71
2018-07-11T04:19:31.734Z,12.78
2018-07-11T04:20:31.713Z,12.74
2018-07-11T04:21:31.704Z,12.83
2018-07-11T04:22:31.702Z,12.89
2018-07-11T04:23:31.674Z,12.85
2018-07-11T04:24:31.652Z,12.92
2018-07-11T04:25:31.641Z,12.93
2018-07-11T04:26:31.623Z,12.93
2018-07-11T04:27:31.622Z,12.93
2018-07-11T04:28:31.592Z,13.00
2018-07-11T04:29:31.573Z,12.97
2018-07-11T04:30:31.571Z,13.07
2018-07-11T04:31:31.547Z,13.14
2018-07-11T04:32:31.548Z,13.15
2018-07-11T04:33:31.617Z,13.11
2018-07-11T04:34:31.546Z,13.08
2018-07-11T04:35:31.497Z,13.22
2018-07-11T04:36:31.466Z,13.19
2018-07-11T04:37:31.469Z,13.26
2018-07-11T04:38:31.437Z,13.29
2018-07-11T04:39:31.420Z,13.29
2018-07-11T04:40:31.421Z,13.30
2018-07-11T04:41:31.392Z,13.38
2018-07-11T04:42:31.395Z,13.45
2018-07-11T04:43:31.359Z,13.66
2018-07-11T04:44:31.344Z,13.82
2018-07-11T04:45:31.325Z,14.04
2018-07-11T04:46:31.309Z,14.21
2018-07-11T04:47:31.310Z,14.33
2018-07-11T04:48:31.298Z,14.42
2018-07-11T04:49:31.267Z,14.64
2018-07-11T04:50:31.255Z,14.83
2018-07-11T04:51:31.254Z,14.95
2018-07-11T04:52:31.225Z,15.13
2018-07-11T04:53:31.208Z,15.34
2018-07-11T04:54:31.196Z,15.36
2018-07-11T04:55:31.186Z,15.57
2018-07-11T04:56:31.161Z,15.65
2018-07-11T04:57:31.169Z,15.75
2018-07-11T04:58:31.136Z,15.93
2018-07-11T04:59:31.114Z,15.86
2018-07-11T05:00:31.128Z,15.93
2018-07-11T05:01:31.088Z,15.93
2018-07-11T05:02:31.089Z,15.90
2018-07-11T05:03:31.059Z,15.84
2018-07-11T05:04:31.044Z,15.90
2018-07-11T05:05:31.048Z,15.84
2018-07-11T05:06:31.019Z,15.80
2018-07-11T05:07:31.005Z,15.80
2018-07-11T05:08:30.985Z,15.68
2018-07-11T05:09:30.972Z,15.60
2018-07-11T05:10:30.974Z,15.50
2018-07-11T05:11:30.945Z,15.50
2018-07-11T05:12:30.935Z,15.46
2018-07-11T05:13:30.929Z,15.51
2018-07-11T05:14:30.903Z,15.59
2018-07-11T05:15:30.909Z,15.51
2018-07-11T05:16:30.875Z,15.54
2018-07-11T05:17:30.864Z,15.44
2018-07-11T05:18:30.846Z,15.50
2018-07-11T05:19:30.848Z,15.44
2018-07-11T05:20:30.816Z,15.51
2018-07-11T05:21:30.804Z,15.47
2018-07-11T05:22:30.813Z,15.50
2018-07-11T05:23:30.773Z,15.59
2018-07-11T05:24:30.758Z,15.51
2018-07-11T05:25:30.776Z,15.56
2018-07-11T05:26:30.735Z,15.60
2018-07-11T05:27:30.724Z,15.62
2018-07-11T05:28:30.707Z,15.54
2018-07-11T05:29:30.712Z,15.47
2018-07-11T05:30:30.706Z,15.46
2018-07-11T05:31:30.666Z,15.49
2018-07-11T05:32:30.655Z,15.53
2018-07-11T05:33:30.634Z,15.41
2018-07-11T05:34:30.622Z,15.51
2018-07-11T05:35:30.613Z,15.38
2018-07-11T05:36:51.601Z,15.36
2018-07-11T05:37:31.185Z,15.35
2018-07-11T05:38:30.568Z,15.49
2018-07-11T05:39:30.560Z,15.41
2018-07-11T05:40:30.537Z,15.47
2018-07-11T05:41:30.554Z,15.56
2018-07-11T05:42:30.559Z,15.65
2018-07-11T05:43:30.499Z,15.68
2018-07-11T05:44:30.479Z,15.69
2018-07-11T05:45:30.468Z,15.72
2018-07-11T05:46:30.473Z,15.84
2018-07-11T05:47:30.440Z,15.82
2018-07-11T05:48:30.425Z,15.82
2018-07-11T05:49:30.416Z,15.76
2018-07-11T05:50:30.402Z,15.82
2018-07-11T05:51:30.404Z,15.82
2018-07-11T05:52:30.371Z,15.80
2018-07-11T05:53:30.355Z,15.80
2018-07-11T05:54:30.339Z,15.84
2018-07-11T05:55:30.328Z,15.75
2018-07-11T05:56:30.341Z,15.87
2018-07-11T05:57:30.295Z,15.84
2018-07-11T05:58:30.281Z,16.01
2018-07-11T05:59:30.268Z,16.08
2018-07-11T06:00:30.260Z,16.17
2018-07-11T06:01:30.243Z,16.15
2018-07-11T06:02:30.288Z,16.23
2018-07-11T06:03:30.212Z,16.23
2018-07-11T06:04:30.201Z,16.27
2018-07-11T06:05:30.257Z,16.39
2018-07-11T06:06:30.174Z,16.45
2018-07-11T06:07:30.170Z,16.57
2018-07-11T06:08:30.146Z,16.48
2018-07-11T06:09:30.129Z,16.56
2018-07-11T06:10:30.130Z,16.57
2018-07-11T06:11:30.102Z,16.50
2018-07-11T06:12:30.121Z,16.57
2018-07-11T06:13:30.167Z,16.58
2018-07-11T06:14:30.061Z,16.57
2018-07-11T06:15:30.044Z,16.38
2018-07-11T06:16:30.035Z,16.34
2018-07-11T06:17:30.024Z,16.46
2018-07-11T06:18:30.005Z,16.48
2018-07-11T06:19:30.006Z,16.56
2018-07-11T06:20:29.971Z,16.56
2018-07-11T06:21:29.958Z,16.60
2018-07-11T06:22:29.945Z,16.73
2018-07-11T06:23:29.930Z,16.67
2018-07-11T06:24:29.936Z,16.71
2018-07-11T06:25:29.900Z,16.88
2018-07-11T06:26:29.893Z,16.88
2018-07-11T06:27:29.873Z,17.06
2018-07-11T06:28:29.865Z,17.18
2018-07-11T06:29:29.868Z,17.23
2018-07-11T06:30:29.835Z,17.31
2018-07-11T06:31:29.824Z,17.21
2018-07-11T06:32:29.809Z,17.12
2018-07-11T06:33:29.864Z,17.14
2018-07-11T06:34:29.801Z,17.07
2018-07-11T06:35:29.764Z,17.14
2018-07-11T06:36:29.748Z,17.06
2018-07-11T06:37:29.740Z,17.11
2018-07-11T06:38:29.727Z,16.94
2018-07-11T06:39:29.709Z,16.98
2018-07-11T06:40:29.727Z,16.97
2018-07-11T06:41:29.687Z,17.08
2018-07-11T06:42:29.678Z,17.03
2018-07-11T06:43:29.655Z,17.06
2018-07-11T06:44:29.696Z,17.07
2018-07-11T06:45:29.631Z,17.12
2018-07-11T06:46:29.628Z,17.08
2018-07-11T06:47:29.598Z,17.25
2018-07-11T06:48:29.587Z,17.19
2018-07-11T06:49:29.585Z,17.31
2018-07-11T06:50:29.570Z,17.30
2018-07-11T06:51:29.569Z,17.28
2018-07-11T06:52:29.532Z,17.28
2018-07-11T06:53:29.517Z,17.25
2018-07-11T06:54:29.506Z,17.26
2018-07-11T06:55:29.507Z,17.36
2018-07-11T06:56:29.493Z,17.40
2018-07-11T06:57:29.492Z,17.33
2018-07-11T06:58:29.463Z,17.40
2018-07-11T06:59:29.431Z,17.38
2018-07-11T07:00:29.437Z,17.43
2018-07-11T07:01:29.424Z,17.54
2018-07-11T07:02:29.394Z,17.58
2018-07-11T07:03:29.439Z,17.77
2018-07-11T07:04:29.369Z,17.90
2018-07-11T07:05:29.348Z,17.82
2018-07-11T07:06:29.356Z,17.92
2018-07-11T07:07:29.325Z,17.95
2018-07-11T07:08:29.314Z,18.07
2018-07-11T07:09:29.319Z,18.20
2018-07-11T07:10:29.285Z,18.32
2018-07-11T07:11:29.274Z,18.33
2018-07-11T07:12:29.276Z,18.29
2018-07-11T07:13:29.247Z,18.27
2018-07-11T07:14:29.252Z,18.33
2018-07-11T07:15:29.224Z,18.42
2018-07-11T07:16:29.276Z,18.35
2018-07-11T07:17:29.194Z,18.48
2018-07-11T07:18:29.200Z,18.47
2018-07-11T07:19:29.167Z,18.45
2018-07-11T07:20:29.154Z,18.50
2018-07-11T07:21:29.142Z,18.45
2018-07-11T07:22:29.184Z,18.57
2018-07-11T07:23:29.126Z,18.63
2018-07-11T07:24:29.100Z,18.66
2018-07-11T07:25:29.083Z,18.65
2018-07-11T07:26:29.070Z,18.66
2018-07-11T07:27:29.078Z,18.70
2018-07-11T07:28:29.043Z,18.73
2018-07-11T07:29:29.035Z,18.75
2018-07-11T07:30:29.032Z,18.81
2018-07-11T07:31:29.007Z,18.76
2018-07-11T07:32:29.015Z,18.82
2018-07-11T07:33:28.999Z,18.81
2018-07-11T07:34:28.971Z,18.80
2018-07-11T07:35:28.965Z,18.91
2018-07-11T07:36:28.946Z,19.00
2018-07-11T07:37:28.941Z,18.98
2018-07-11T07:38:28.936Z,19.08
2018-07-11T07:39:28.907Z,19.10
2018-07-11T07:40:28.894Z,19.23
2018-07-11T07:41:28.880Z,19.25
2018-07-11T07:42:28.864Z,19.25
2018-07-11T07:43:28.870Z,19.31
2018-07-11T07:44:28.836Z,19.28
2018-07-11T07:45:28.827Z,19.43
2018-07-11T07:46:28.825Z,19.31
2018-07-11T07:47:28.801Z,19.46
2018-07-11T07:48:28.804Z,19.54
2018-07-11T07:49:28.774Z,19.56
2018-07-11T07:50:28.872Z,19.43
2018-07-11T07:51:28.747Z,19.59
2018-07-11T07:52:28.737Z,19.62
2018-07-11T07:53:28.754Z,19.62
2018-07-11T07:54:28.721Z,19.59
2018-07-11T07:55:28.710Z,19.65
2018-07-11T07:56:28.691Z,19.77
2018-07-11T07:57:28.672Z,19.81
2018-07-11T07:58:28.665Z,19.96
2018-07-11T07:59:28.681Z,20.05
2018-07-11T08:00:28.649Z,20.06
2018-07-11T08:01:28.622Z,20.13
2018-07-11T08:02:28.609Z,20.13
2018-07-11T08:03:28.596Z,20.18
2018-07-11T08:04:28.599Z,20.14
2018-07-11T08:05:28.583Z,20.08
2018-07-11T08:06:28.564Z,20.33
2018-07-11T08:07:28.547Z,20.50
2018-07-11T08:08:28.540Z,20.41
2018-07-11T08:09:28.554Z,20.54
2018-07-11T08:10:28.536Z,20.58
2018-07-11T08:11:28.502Z,20.57
2018-07-11T08:12:28.617Z,20.61
2018-07-11T08:13:28.471Z,20.62
2018-07-11T08:14:28.458Z,20.66
2018-07-11T08:15:28.445Z,20.70
2018-07-11T08:16:28.455Z,20.69
2018-07-11T08:17:28.427Z,20.88
2018-07-11T08:18:28.413Z,20.84
2018-07-11T08:19:28.398Z,20.89
2018-07-11T08:20:28.393Z,20.95
2018-07-11T08:21:28.417Z,20.94
2018-07-11T08:22:28.365Z,21.21
2018-07-11T08:23:28.352Z,21.21
2018-07-11T08:24:28.337Z,21.42
2018-07-11T08:25:28.359Z,21.47
2018-07-11T08:26:28.308Z,21.59
2018-07-11T08:27:28.337Z,21.67
2018-07-11T08:28:28.287Z,21.71
2018-07-11T08:29:28.273Z,21.72
2018-07-11T08:30:28.262Z,21.69
2018-07-11T08:31:28.269Z,21.84
2018-07-11T08:32:28.253Z,22.03
2018-07-11T08:33:28.233Z,22.00
2018-07-11T08:34:28.227Z,22.00
2018-07-11T08:35:28.209Z,22.00
2018-07-11T08:36:28.227Z,22.07
2018-07-11T08:37:28.183Z,22.15
2018-07-11T08:38:28.173Z,22.14
2018-07-11T08:39:28.161Z,22.12
2018-07-11T08:40:28.148Z,22.17
2018-07-11T08:41:28.137Z,22.20
2018-07-11T08:42:28.150Z,22.22
2018-07-11T08:43:28.113Z,22.31
2018-07-11T08:44:28.108Z,22.37
2018-07-11T08:45:28.107Z,22.45
2018-07-11T08:46:28.078Z,22.57
2018-07-11T08:47:28.069Z,22.61
2018-07-11T08:48:49.069Z,22.77
2018-07-11T08:49:28.048Z,22.85
2018-07-11T08:50:28.033Z,23.05
2018-07-11T08:51:28.025Z,23.23
2018-07-11T08:52:28.013Z,23.38
2018-07-11T08:53:28.016Z,23.50
2018-07-11T08:54:28.006Z,23.69
2018-07-11T08:55:27.978Z,23.76
2018-07-11T08:56:27.969Z,23.75
2018-07-11T08:57:27.963Z,23.66
2018-07-11T08:58:27.961Z,23.57
2018-07-11T08:59:27.937Z,23.80
2018-07-11T09:00:27.942Z,23.95
2018-07-11T09:01:27.914Z,24.46
2018-07-11T09:02:27.903Z,24.90
2018-07-11T09:03:27.910Z,25.38
2018-07-11T09:04:27.882Z,25.65
2018-07-11T09:05:27.872Z,25.77
2018-07-11T09:06:27.877Z,26.12
2018-07-11T09:07:27.855Z,26.43
2018-07-11T09:08:27.841Z,26.76
2018-07-11T09:09:27.831Z,27.12
2018-07-11T09:10:27.874Z,27.27
2018-07-11T09:11:27.810Z,27.62
2018-07-11T09:12:27.804Z,27.69
2018-07-11T09:13:27.786Z,26.82
2018-07-11T09:14:27.784Z,26.66
2018-07-11T09:15:27.785Z,27.21
2018-07-11T09:16:27.760Z,27.36
2018-07-11T09:17:27.753Z,27.66
2018-07-11T09:18:27.740Z,27.97
2018-07-11T09:19:27.760Z,27.90
2018-07-11T09:20:27.722Z,27.99
2018-07-11T09:21:27.711Z,28.44
2018-07-11T09:22:27.704Z,28.59
2018-07-11T09:23:27.691Z,29.14
2018-07-11T09:24:27.724Z,29.33
2018-07-11T09:25:27.688Z,29.23
2018-07-11T09:26:27.670Z,29.53
2018-07-11T09:27:27.675Z,29.82
2018-07-11T09:28:27.653Z,29.39
2018-07-11T09:29:27.645Z,27.24
2018-07-11T09:30:27.674Z,26.18
2018-07-11T09:31:27.631Z,25.79
2018-07-11T09:32:27.622Z,25.46
2018-07-11T09:33:27.620Z,26.20
2018-07-11T09:34:27.611Z,25.54
2018-07-11T09:35:27.613Z,24.99
2018-07-11T09:36:27.597Z,24.52
2018-07-11T09:37:27.611Z,24.18
2018-07-11T09:38:27.590Z,24.39
2018-07-11T09:39:27.576Z,25.38
2018-07-11T09:40:27.573Z,26.29
2018-07-11T09:41:27.564Z,26.84
2018-07-11T09:42:27.571Z,27.82
2018-07-11T09:43:27.551Z,28.07
2018-07-11T09:44:27.545Z,28.80
2018-07-11T09:45:27.536Z,29.37
2018-07-11T09:46:27.529Z,29.70
2018-07-11T09:47:27.541Z,29.73
2018-07-11T09:48:27.521Z,29.74
2018-07-11T09:49:27.513Z,29.73
2018-07-11T09:50:27.506Z,30.32
2018-07-11T09:51:27.506Z,30.08
2018-07-11T09:52:27.511Z,29.51
2018-07-11T09:53:27.496Z,28.51
2018-07-11T09:54:27.489Z,27.34
2018-07-11T09:55:27.490Z,26.55
2018-07-11T09:56:27.486Z,25.80
2018-07-11T09:57:27.496Z,25.09
2018-07-11T09:58:27.477Z,24.61
2018-07-11T09:59:27.472Z,24.21
2018-07-11T10:00:27.463Z,24.08
2018-07-11T10:01:27.463Z,24.08
2018-07-11T10:02:27.471Z,24.42
2018-07-11T10:03:27.452Z,24.10
2018-07-11T10:04:27.440Z,23.76
2018-07-11T10:05:27.454Z,23.58
2018-07-11T10:06:27.436Z,23.43
2018-07-11T10:07:27.427Z,23.35
2018-07-11T10:08:27.423Z,23.22
2018-07-11T10:09:27.413Z,23.17
2018-07-11T10:10:27.421Z,23.15
2018-07-11T10:11:27.412Z,23.33
2018-07-11T10:12:27.396Z,23.32
2018-07-11T10:13:27.384Z,23.35
2018-07-11T10:14:27.391Z,23.39
2018-07-11T10:15:27.367Z,23.36
2018-07-11T10:16:27.362Z,23.38
2018-07-11T10:17:27.366Z,23.90
2018-07-11T10:18:27.348Z,24.93
2018-07-11T10:19:27.335Z,26.02
2018-07-11T10:20:27.361Z,26.77
2018-07-11T10:21:27.324Z,26.88
2018-07-11T10:22:27.316Z,26.54
2018-07-11T10:23:27.309Z,25.73
2018-07-11T10:24:27.311Z,25.76
2018-07-11T10:25:27.295Z,25.91
2018-07-11T10:26:28.412Z,25.65
2018-07-11T10:27:27.408Z,25.14
2018-07-11T10:28:27.296Z,24.57
2018-07-11T10:29:27.323Z,24.16
2018-07-11T10:30:27.270Z,25.30
2018-07-11T10:31:27.274Z,26.21
2018-07-11T10:32:27.253Z,26.60
2018-07-11T10:33:27.238Z,27.27
2018-07-11T10:34:27.238Z,27.57
2018-07-11T10:35:27.232Z,27.78
2018-07-11T10:36:27.233Z,27.82
2018-07-11T10:37:27.235Z,28.18
2018-07-11T10:38:27.211Z,28.25
2018-07-11T10:39:27.203Z,28.49
2018-07-11T10:40:27.214Z,29.12
2018-07-11T10:41:27.194Z,29.04
2018-07-11T10:42:27.206Z,29.33
2018-07-11T10:43:27.188Z,29.14
2018-07-11T10:44:27.188Z,29.30
2018-07-11T10:45:27.178Z,29.65
2018-07-11T10:46:27.181Z,29.76
2018-07-11T10:47:27.192Z,29.68
2018-07-11T10:48:27.179Z,29.65
2018-07-11T10:49:27.180Z,29.18
2018-07-11T10:50:27.216Z,28.92
2018-07-11T10:51:27.165Z,29.19
2018-07-11T10:52:27.182Z,29.51
2018-07-11T10:53:27.159Z,29.86
2018-07-11T10:54:27.175Z,30.00
2018-07-11T10:55:27.156Z,29.86
2018-07-11T10:56:27.157Z,30.51
2018-07-11T10:57:27.180Z,29.08
2018-07-11T10:58:27.170Z,28.25
2018-07-11T10:59:27.169Z,27.36
2018-07-11T11:00:36.654Z,26.54
2018-07-11T11:01:27.176Z,27.14
2018-07-11T11:02:27.150Z,27.94
2018-07-11T11:03:27.150Z,28.37
2018-07-11T11:04:27.150Z,28.95
2018-07-11T11:05:27.144Z,29.37
2018-07-11T11:06:27.154Z,29.39
2018-07-11T11:07:27.147Z,29.49
2018-07-11T11:08:27.144Z,29.51
2018-07-11T11:09:27.152Z,29.58
2018-07-11T11:10:27.135Z,29.08
2018-07-11T11:11:27.149Z,28.85
2018-07-11T11:12:27.131Z,28.64
2018-07-11T11:13:27.131Z,28.77
2018-07-11T11:14:27.151Z,29.12
2018-07-11T11:15:27.133Z,28.54
2018-07-11T11:16:27.127Z,27.93
2018-07-11T11:17:27.128Z,28.31
2018-07-11T11:18:27.139Z,29.05
2018-07-11T11:19:27.125Z,29.05
2018-07-11T11:20:27.121Z,29.41
2018-07-11T11:21:27.118Z,29.78
2018-07-11T11:22:27.124Z,30.00
2018-07-11T11:23:27.134Z,29.87
2018-07-11T11:24:27.125Z,30.35
2018-07-11T11:25:27.112Z,30.86
2018-07-11T11:26:27.113Z,30.65
2018-07-11T11:27:27.127Z,30.13
2018-07-11T11:28:27.111Z,29.76
2018-07-11T11:29:27.112Z,29.45
2018-07-11T11:30:27.113Z,29.23
2018-07-11T11:31:27.114Z,28.62
2018-07-11T11:32:27.125Z,28.29
2018-07-11T11:33:27.119Z,27.88
2018-07-11T11:34:27.108Z,27.57
2018-07-11T11:35:27.101Z,27.40
2018-07-11T11:36:27.105Z,26.97
2018-07-11T11:37:27.100Z,26.21
2018-07-11T11:38:27.113Z,25.64
2018-07-11T11:39:27.103Z,25.23
2018-07-11T11:40:27.117Z,25.00
2018-07-11T11:41:27.112Z,24.78
2018-07-11T11:42:27.281Z,24.62
2018-07-11T11:43:27.114Z,24.42
2018-07-11T11:44:27.078Z,24.30
2018-07-11T11:45:27.075Z,24.21
2018-07-11T11:46:27.087Z,24.21
2018-07-11T11:47:27.063Z,24.16
2018-07-11T11:48:27.059Z,24.21
2018-07-11T11:49:48.072Z,24.18
2018-07-11T11:50:27.061Z,24.34
2018-07-11T11:51:27.042Z,24.32
2018-07-11T11:52:27.038Z,24.43
2018-07-11T11:53:27.031Z,24.15
2018-07-11T11:54:27.034Z,24.06
2018-07-11T11:55:27.013Z,23.94
2018-07-11T11:56:27.027Z,24.09
2018-07-11T11:57:27.018Z,24.28
2018-07-11T11:58:27.033Z,24.37
2018-07-11T11:59:26.985Z,25.00
2018-07-11T12:00:26.997Z,25.39
2018-07-11T12:01:26.976Z,25.79
2018-07-11T12:02:29.372Z,26.07
2018-07-11T12:03:26.965Z,26.20
2018-07-11T12:04:33.172Z,26.20
2018-07-11T12:05:26.943Z,26.02
2018-07-11T12:06:27.829Z,26.15
2018-07-11T12:07:27.804Z,26.28
2018-07-11T12:08:26.942Z,26.33
2018-07-11T12:09:26.929Z,26.06
2018-07-11T12:10:32.995Z,26.06
2018-07-11T12:11:26.930Z,26.09
2018-07-11T12:12:26.917Z,26.23
2018-07-11T12:13:26.911Z,26.44
2018-07-11T12:14:26.904Z,25.88
2018-07-11T12:15:26.901Z,25.17
2018-07-11T12:16:26.912Z,25.17
2018-07-11T12:17:26.899Z,25.30
2018-07-11T12:18:26.888Z,25.50
2018-07-11T12:19:26.885Z,25.61
2018-07-11T12:20:26.881Z,25.65
2018-07-11T12:21:26.942Z,25.92
2018-07-11T12:22:26.905Z,25.75
2018-07-11T12:23:26.866Z,25.99
2018-07-11T12:24:26.863Z,26.09
2018-07-11T12:25:26.857Z,25.73
2018-07-11T12:26:26.847Z,25.76
2018-07-11T12:27:26.871Z,25.83
2018-07-11T12:28:26.848Z,25.87
2018-07-11T12:29:26.841Z,25.92
2018-07-11T12:30:26.834Z,25.79
2018-07-11T12:31:26.850Z,25.67
2018-07-11T12:32:26.861Z,25.65
2018-07-11T12:33:26.855Z,25.92
2018-07-11T12:34:26.825Z,25.92
2018-07-11T12:35:26.830Z,25.98
2018-07-11T12:36:26.817Z,25.76
2018-07-11T12:37:26.810Z,25.40
2018-07-11T12:38:47.833Z,25.95
2018-07-11T12:39:26.800Z,26.18
2018-07-11T12:40:26.804Z,26.45
2018-07-11T12:41:26.813Z,26.55
2018-07-11T12:42:26.787Z,26.72
2018-07-11T12:43:26.816Z,26.69
2018-07-11T12:44:26.782Z,26.63
2018-07-11T12:45:26.786Z,26.55
2018-07-11T12:46:26.780Z,26.82
2018-07-11T12:47:26.796Z,26.91
2018-07-11T12:48:26.768Z,27.17
2018-07-11T12:49:26.767Z,27.14
2018-07-11T12:50:26.775Z,27.60
2018-07-11T12:51:26.762Z,27.44
2018-07-11T12:52:26.780Z,26.97